Terminal Aerodrome Forecast
Issued by NWS Cleveland, OH

Home | Current Version | Previous Version | Text Only | Print | Product List | Glossary On
Versions: 1 2 3 4 5 6 7 8 9 10 11 12 13 14 15 16 17
000
FTUS41 KCLE 011700 RRA
TAFTOL
TAF
KTOL 011746Z 0118/0218 08015G25KT 1 1/2SM -SN BR SCT008 OVC012
      TEMPO 0118/0122 1/2SM SN BLSN OVC008
     FM012200 06015G25KT 1/2SM SN BLSN OVC006
      TEMPO 0123/0203 1/4SM +SN OVC003
     FM020600 01020G32KT 3/4SM -SN BLSN OVC004
     FM021300 34020G32KT 1 1/2SM BLSN OVC010=

USA.gov is the U.S. government's official web portal to all federal, state and local government web resources and services.